Time;durP1;ratioP1;P1;durP2;ratioP2;P2;SDS_P1;SDS_P2;PMS_P1;PMS_P2;Temp;Humidity;BMP_temperature;BMP_pressure;BME280_temperature;BME280_humidity;BME280_pressure;Samples;Min_cycle;Max_cycle;Signal;HPM_P1;HPM_P2
2023/07/01 00:02:05;;;;;;;3.95;2.13;;;;;;;;;;7367122;19;20014;-65
2023/07/01 00:04:30;;;;;;;6.28;2.22;;;;;;;;;;7366855;19;20074;-65
2023/07/01 00:06:56;;;;;;;5.97;2.30;;;;;;;;;;7364978;19;20014;-67
2023/07/01 00:09:21;;;;;;;4.43;2.25;;;;;;;;;;7386181;19;20014;-67
2023/07/01 00:11:47;;;;;;;3.97;2.25;;;;;;;;;;7365500;19;20517;-67
2023/07/01 00:14:12;;;;;;;5.25;2.22;;;;;;;;;;7364093;19;20006;-67
2023/07/01 00:16:39;;;;;;;8.55;2.38;;;;;;;;;;7366355;19;20022;-67
2023/07/01 00:19:05;;;;;;;5.47;2.10;;;;;;;;;;7365141;19;20014;-67
2023/07/01 00:21:30;;;;;;;7.03;2.33;;;;;;;;;;7386129;19;20014;-66
2023/07/01 00:23:56;;;;;;;6.00;2.10;;;;;;;;;;7364091;19;20011;-67
2023/07/01 00:26:21;;;;;;;5.25;2.15;;;;;;;;;;7363810;19;20350;-67
2023/07/01 00:28:46;;;;;;;7.25;2.03;;;;;;;;;;7364652;19;20022;-67
2023/07/01 00:31:12;;;;;;;6.85;2.35;;;;;;;;;;7364154;19;20397;-66
2023/07/01 00:33:37;;;;;;;3.17;2.00;;;;;;;;;;7386176;19;20485;-67
2023/07/01 00:36:03;;;;;;;6.15;1.83;;;;;;;;;;7362988;19;20513;-67
2023/07/01 00:38:28;;;;;;;4.28;2.00;;;;;;;;;;7365067;19;20011;-67
2023/07/01 00:40:53;;;;;;;5.10;2.17;;;;;;;;;;7364839;19;20073;-67
2023/07/01 00:43:19;;;;;;;4.97;2.05;;;;;;;;;;7365222;19;20050;-67
2023/07/01 00:45:44;;;;;;;4.50;2.25;;;;;;;;;;7388144;19;20025;-65
2023/07/01 00:48:21;;;;;;;5.03;2.05;;;;;;;;;;7364703;19;20010;-67
2023/07/01 00:50:46;;;;;;;5.25;2.58;;;;;;;;;;7365445;19;20017;-67
2023/07/01 00:53:11;;;;;;;4.72;2.20;;;;;;;;;;7364706;19;20010;-67
2023/07/01 00:55:37;;;;;;;7.10;2.08;;;;;;;;;;7365376;19;20021;-67
2023/07/01 00:58:02;;;;;;;4.70;2.10;;;;;;;;;;7363568;19;20014;-67
2023/07/01 01:00:27;;;;;;;4.82;2.10;;;;;;;;;;7384796;19;20017;-67
2023/07/01 01:03:14;;;;;;;4.68;2.10;;;;;;;;;;7364851;19;20027;-67
2023/07/01 01:05:47;;;;;;;4.65;2.08;;;;;;;;;;7366093;19;20027;-66
2023/07/01 01:08:19;;;;;;;3.92;2.13;;;;;;;;;;7364824;19;20464;-66
2023/07/01 01:10:47;;;;;;;5.80;2.22;;;;;;;;;;7363416;19;20011;-66
2023/07/01 01:13:15;;;;;;;3.47;1.85;;;;;;;;;;7364083;19;20114;-66
2023/07/01 01:15:42;;;;;;;4.43;2.00;;;;;;;;;;7383104;19;20545;-66
2023/07/01 01:18:08;;;;;;;3.80;2.00;;;;;;;;;;7362071;19;20017;-66
2023/07/01 01:20:38;;;;;;;5.22;2.03;;;;;;;;;;7365152;19;20087;-66
2023/07/01 01:23:08;;;;;;;6.22;2.35;;;;;;;;;;7362811;19;20022;-66
2023/07/01 01:25:45;;;;;;;6.30;2.30;;;;;;;;;;7364794;19;20054;-66
2023/07/01 01:28:11;;;;;;;2.92;1.88;;;;;;;;;;7362159;19;20260;-66
2023/07/01 01:30:37;;;;;;;3.92;2.25;;;;;;;;;;7386185;19;20484;-66
2023/07/01 01:33:03;;;;;;;3.58;2.22;;;;;;;;;;7361319;19;20014;-66
2023/07/01 01:35:29;;;;;;;4.70;2.28;;;;;;;;;;7363476;19;20010;-65
2023/07/01 01:38:19;;;;;;;3.25;2.10;;;;;;;;;;7362075;19;20023;-67
2023/07/01 01:41:00;;;;;;;5.03;2.33;;;;;;;;;;7363764;19;20011;-65
2023/07/01 01:44:11;;;;;;;4.65;2.58;;;;;;;;;;7363850;19;20079;-66
2023/07/01 01:46:38;;;;;;;9.00;2.35;;;;;;;;;;7360873;19;20694;-66
2023/07/01 01:49:06;;;;;;;8.85;2.70;;;;;;;;;;7361503;19;20049;-65
2023/07/01 01:51:33;;;;;;;6.75;2.55;;;;;;;;;;7384532;19;20039;-66
2023/07/01 01:54:00;;;;;;;4.50;2.53;;;;;;;;;;7363325;19;20355;-66
2023/07/01 01:56:30;;;;;;;3.63;2.10;;;;;;;;;;7369088;19;20505;-65
2023/07/01 01:58:55;;;;;;;5.03;2.40;;;;;;;;;;7370956;19;20078;-65
2023/07/01 02:01:20;;;;;;;7.05;2.80;;;;;;;;;;7369737;19;20504;-65
2023/07/01 02:03:46;;;;;;;6.28;2.60;;;;;;;;;;7385189;19;20030;-66
2023/07/01 02:06:11;;;;;;;10.63;3.25;;;;;;;;;;7379669;19;20882;-66
2023/07/01 02:08:37;;;;;;;5.78;2.13;;;;;;;;;;7370625;19;20010;-66
2023/07/01 02:11:02;;;;;;;4.90;2.40;;;;;;;;;;7371058;19;20006;-66
2023/07/01 02:13:28;;;;;;;4.75;2.20;;;;;;;;;;7368943;19;20488;-66
2023/07/01 02:15:53;;;;;;;3.72;2.15;;;;;;;;;;7366501;19;20011;-66
2023/07/01 02:18:19;;;;;;;4.72;2.20;;;;;;;;;;7388610;19;20019;-66
2023/07/01 02:20:44;;;;;;;6.38;2.28;;;;;;;;;;7369410;19;20031;-66
2023/07/01 02:23:10;;;;;;;6.53;2.60;;;;;;;;;;7367946;19;20010;-66
2023/07/01 02:25:35;;;;;;;3.00;1.95;;;;;;;;;;7370440;19;20630;-66
2023/07/01 02:28:00;;;;;;;5.03;2.35;;;;;;;;;;7368578;19;20091;-66
2023/07/01 02:30:26;;;;;;;6.13;2.13;;;;;;;;;;7389355;19;20082;-66
2023/07/01 02:32:51;;;;;;;4.43;2.42;;;;;;;;;;7367510;19;20025;-66
2023/07/01 02:35:16;;;;;;;5.43;2.20;;;;;;;;;;7367898;19;20611;-66
2023/07/01 02:37:42;;;;;;;4.80;2.20;;;;;;;;;;7370108;19;20014;-66
2023/07/01 02:40:08;;;;;;;5.95;2.33;;;;;;;;;;7368341;19;20024;-66
2023/07/01 02:42:33;;;;;;;4.25;2.20;;;;;;;;;;7391417;19;20400;-65
2023/07/01 02:44:58;;;;;;;5.50;2.25;;;;;;;;;;7370884;19;20022;-66
2023/07/01 02:47:24;;;;;;;5.40;2.30;;;;;;;;;;7370913;19;20006;-66
2023/07/01 02:49:49;;;;;;;5.13;2.20;;;;;;;;;;7369357;19;20528;-66
2023/07/01 02:52:15;;;;;;;4.95;2.40;;;;;;;;;;7369991;19;20014;-66
2023/07/01 02:54:40;;;;;;;6.15;2.50;;;;;;;;;;7391007;19;20011;-65
2023/07/01 02:57:10;;;;;;;3.70;2.10;;;;;;;;;;7368543;19;20034;-66
2023/07/01 02:59:36;;;;;;;5.45;2.38;;;;;;;;;;7367981;19;20002;-65
2023/07/01 03:02:05;;;;;;;6.57;2.47;;;;;;;;;;7367546;19;20046;-66
2023/07/01 03:04:32;;;;;;;5.40;2.20;;;;;;;;;;7367461;19;20010;-66
2023/07/01 03:06:57;;;;;;;5.30;2.10;;;;;;;;;;7366731;19;20019;-66
2023/07/01 03:09:23;;;;;;;5.10;2.13;;;;;;;;;;7389155;19;20022;-66
2023/07/01 03:11:48;;;;;;;5.68;2.40;;;;;;;;;;7367236;19;20456;-66
2023/07/01 03:14:14;;;;;;;6.70;2.42;;;;;;;;;;7366465;19;20018;-66
2023/07/01 03:16:41;;;;;;;4.95;2.72;;;;;;;;;;7367067;19;20010;-66
2023/07/01 03:19:06;;;;;;;4.85;2.30;;;;;;;;;;7368539;19;20083;-66
2023/07/01 03:21:33;;;;;;;4.07;2.30;;;;;;;;;;7388240;19;20018;-66
2023/07/01 03:23:58;;;;;;;7.72;2.50;;;;;;;;;;7367605;19;20018;-66
2023/07/01 03:26:24;;;;;;;5.15;2.20;;;;;;;;;;7366212;19;20009;-66
2023/07/01 03:28:49;;;;;;;5.20;2.33;;;;;;;;;;7369015;19;20010;-66
2023/07/01 03:31:15;;;;;;;5.78;2.40;;;;;;;;;;7366819;19;20394;-66
2023/07/01 03:33:40;;;;;;;4.55;2.50;;;;;;;;;;7386081;19;20011;-66
2023/07/01 03:36:06;;;;;;;5.00;2.67;;;;;;;;;;7364914;19;20010;-67
2023/07/01 03:38:31;;;;;;;5.90;2.45;;;;;;;;;;7367080;19;20018;-66
2023/07/01 03:40:56;;;;;;;4.55;2.40;;;;;;;;;;7364331;19;20015;-64
2023/07/01 03:43:22;;;;;;;5.43;2.38;;;;;;;;;;7368035;19;20029;-67
2023/07/01 03:45:47;;;;;;;4.88;2.20;;;;;;;;;;7370726;19;20003;-66
2023/07/01 03:48:12;;;;;;;8.32;2.90;;;;;;;;;;7391390;19;20014;-67
2023/07/01 03:50:38;;;;;;;5.85;2.60;;;;;;;;;;7371554;19;20011;-67
2023/07/01 03:53:03;;;;;;;4.75;2.50;;;;;;;;;;7367917;19;20033;-67
2023/07/01 03:55:28;;;;;;;5.25;2.90;;;;;;;;;;7372017;19;20014;-67
2023/07/01 03:57:54;;;;;;;5.20;2.92;;;;;;;;;;7371177;19;20003;-66
2023/07/01 04:00:19;;;;;;;5.68;2.78;;;;;;;;;;7385752;19;20011;-67
2023/07/01 04:02:46;;;;;;;7.85;2.90;;;;;;;;;;7366780;19;20006;-67
2023/07/01 04:05:12;;;;;;;8.68;2.70;;;;;;;;;;7368060;19;20034;-67
2023/07/01 04:07:41;;;;;;;6.38;3.38;;;;;;;;;;7366717;19;20022;-67
2023/07/01 04:10:08;;;;;;;5.72;2.90;;;;;;;;;;7365419;19;21057;-66
2023/07/01 04:12:34;;;;;;;7.93;2.70;;;;;;;;;;7389760;19;20046;-66
2023/07/01 04:15:00;;;;;;;6.55;2.90;;;;;;;;;;7366031;19;20030;-66
2023/07/01 04:17:26;;;;;;;7.15;2.70;;;;;;;;;;7366175;19;20014;-66
2023/07/01 04:19:52;;;;;;;5.72;3.20;;;;;;;;;;7364470;19;20010;-67
2023/07/01 04:22:18;;;;;;;10.95;3.58;;;;;;;;;;7365768;19;20006;-67
2023/07/01 04:24:43;;;;;;;5.93;3.15;;;;;;;;;;7386831;19;20044;-66
2023/07/01 04:27:08;;;;;;;10.48;3.05;;;;;;;;;;7365623;19;20014;-66
2023/07/01 04:29:34;;;;;;;6.18;2.80;;;;;;;;;;7366044;19;20010;-67
2023/07/01 04:32:00;;;;;;;5.97;2.88;;;;;;;;;;7367106;19;20006;-66
2023/07/01 04:34:25;;;;;;;6.07;2.85;;;;;;;;;;7366366;19;20062;-67
2023/07/01 04:36:50;;;;;;;6.10;2.90;;;;;;;;;;7364523;19;20537;-66
2023/07/01 04:39:16;;;;;;;6.38;2.85;;;;;;;;;;7387320;19;20014;-66
2023/07/01 04:41:41;;;;;;;6.40;3.13;;;;;;;;;;7365016;19;20010;-67
2023/07/01 04:44:06;;;;;;;6.60;2.90;;;;;;;;;;7367098;19;20007;-66
2023/07/01 04:46:32;;;;;;;7.00;2.83;;;;;;;;;;7366847;19;20041;-66
2023/07/01 04:48:59;;;;;;;9.23;3.00;;;;;;;;;;7365882;19;20097;-66
2023/07/01 04:51:25;;;;;;;6.68;3.35;;;;;;;;;;7387535;19;20002;-67
2023/07/01 04:53:51;;;;;;;5.80;3.28;;;;;;;;;;7363542;19;20010;-67
2023/07/01 04:56:16;;;;;;;5.45;2.72;;;;;;;;;;7363500;19;20015;-67
2023/07/01 04:58:41;;;;;;;5.28;2.70;;;;;;;;;;7363697;19;20018;-66
2023/07/01 05:01:07;;;;;;;6.60;2.97;;;;;;;;;;7361142;19;20044;-66
2023/07/01 05:03:32;;;;;;;5.28;2.78;;;;;;;;;;7385856;19;20003;-66
2023/07/01 05:05:58;;;;;;;5.55;2.92;;;;;;;;;;7362022;19;20025;-67
2023/07/01 05:08:23;;;;;;;8.55;2.78;;;;;;;;;;7364139;19;20476;-66
2023/07/01 05:10:49;;;;;;;7.22;2.97;;;;;;;;;;7362391;19;20030;-67
2023/07/01 05:13:14;;;;;;;5.95;2.67;;;;;;;;;;7363122;19;20085;-67
2023/07/01 05:15:40;;;;;;;4.97;2.60;;;;;;;;;;7383418;19;20045;-67
2023/07/01 05:18:06;;;;;;;6.95;2.70;;;;;;;;;;7361821;19;20011;-67
2023/07/01 05:20:31;;;;;;;5.00;2.70;;;;;;;;;;7363736;19;20010;-65
2023/07/01 05:22:56;;;;;;;3.53;2.20;;;;;;;;;;7362040;19;20021;-66
2023/07/01 05:25:22;;;;;;;5.03;2.47;;;;;;;;;;7363903;19;20038;-66
2023/07/01 05:27:47;;;;;;;3.90;2.30;;;;;;;;;;7362650;19;20499;-66
2023/07/01 05:30:12;;;;;;;6.70;2.40;;;;;;;;;;7384529;19;20011;-66
2023/07/01 05:32:38;;;;;;;5.25;2.35;;;;;;;;;;7370663;19;20385;-66
2023/07/01 05:35:04;;;;;;;4.45;2.13;;;;;;;;;;7370464;19;20010;-65
2023/07/01 05:37:29;;;;;;;5.68;2.20;;;;;;;;;;7370032;19;20021;-67
2023/07/01 05:39:54;;;;;;;5.03;2.35;;;;;;;;;;7371968;19;20066;-66
2023/07/01 05:42:20;;;;;;;5.22;2.22;;;;;;;;;;7393306;19;20006;-66
2023/07/01 05:44:45;;;;;;;4.47;2.10;;;;;;;;;;7370241;19;20453;-67
2023/07/01 05:47:10;;;;;;;5.15;2.08;;;;;;;;;;7371116;19;20027;-66
2023/07/01 05:49:35;;;;;;;5.15;2.50;;;;;;;;;;7370006;19;20014;-66
2023/07/01 05:52:01;;;;;;;4.20;2.20;;;;;;;;;;7372856;19;20002;-65
2023/07/01 05:54:26;;;;;;;3.10;1.90;;;;;;;;;;7394599;19;20341;-65
2023/07/01 05:56:51;;;;;;;5.00;2.30;;;;;;;;;;7364218;19;20030;-65
2023/07/01 05:59:17;;;;;;;4.93;2.53;;;;;;;;;;7370402;19;20271;-66
2023/07/01 06:01:42;;;;;;;7.38;2.20;;;;;;;;;;7371443;19;20072;-66
2023/07/01 06:04:07;;;;;;;4.60;2.45;;;;;;;;;;7370978;19;20014;-67
2023/07/01 06:06:33;;;;;;;5.45;2.67;;;;;;;;;;7394084;19;20007;-68
2023/07/01 06:08:58;;;;;;;5.00;2.65;;;;;;;;;;7369222;19;20014;-66
2023/07/01 06:11:24;;;;;;;5.63;2.78;;;;;;;;;;7370849;19;20017;-67
2023/07/01 06:13:49;;;;;;;6.20;2.78;;;;;;;;;;7370770;19;20021;-66
2023/07/01 06:16:15;;;;;;;7.75;2.78;;;;;;;;;;7368976;19;20018;-66
2023/07/01 06:18:41;;;;;;;8.95;3.13;;;;;;;;;;7389838;19;20687;-66
2023/07/01 06:21:07;;;;;;;8.20;2.80;;;;;;;;;;7373162;19;20006;-68
2023/07/01 06:23:33;;;;;;;5.47;2.70;;;;;;;;;;7373058;19;20636;-68
2023/07/01 06:25:58;;;;;;;7.15;2.53;;;;;;;;;;7369455;19;20053;-67
2023/07/01 06:28:24;;;;;;;5.88;2.40;;;;;;;;;;7369204;19;20006;-68
2023/07/01 06:30:49;;;;;;;7.60;2.92;;;;;;;;;;7371889;19;20010;-68
2023/07/01 06:33:14;;;;;;;6.13;2.80;;;;;;;;;;7392660;19;20018;-67
2023/07/01 06:35:42;;;;;;;5.03;2.45;;;;;;;;;;7369978;19;20010;-66
2023/07/01 06:38:08;;;;;;;6.25;2.20;;;;;;;;;;7371120;19;20495;-66
2023/07/01 06:40:33;;;;;;;6.88;2.45;;;;;;;;;;7368073;19;20089;-66
2023/07/01 06:42:58;;;;;;;5.80;2.20;;;;;;;;;;7366573;19;20020;-67
2023/07/01 06:45:24;;;;;;;4.57;2.38;;;;;;;;;;7390292;19;20007;-67
2023/07/01 06:47:49;;;;;;;4.35;2.20;;;;;;;;;;7367722;19;20007;-68
2023/07/01 06:50:15;;;;;;;4.78;2.33;;;;;;;;;;7371855;19;20006;-68
2023/07/01 06:52:40;;;;;;;8.30;2.20;;;;;;;;;;7371824;19;20010;-67
2023/07/01 06:55:07;;;;;;;6.20;2.42;;;;;;;;;;7369217;19;20015;-67
2023/07/01 06:57:32;;;;;;;5.43;1.73;;;;;;;;;;7393819;19;20011;-67
2023/07/01 06:59:58;;;;;;;5.63;2.10;;;;;;;;;;7372219;19;20011;-67
2023/07/01 07:02:23;;;;;;;5.00;2.17;;;;;;;;;;7370976;19;20021;-67
2023/07/01 07:04:49;;;;;;;6.60;2.40;;;;;;;;;;7371456;19;20010;-67
2023/07/01 07:07:15;;;;;;;7.03;2.50;;;;;;;;;;7371299;19;20006;-67
2023/07/01 07:09:40;;;;;;;6.22;2.15;;;;;;;;;;7394266;19;20360;-69
2023/07/01 07:12:06;;;;;;;7.75;2.10;;;;;;;;;;7372031;19;20035;-69
2023/07/01 07:14:31;;;;;;;4.93;2.10;;;;;;;;;;7371651;19;19998;-69
2023/07/01 07:16:57;;;;;;;8.43;2.70;;;;;;;;;;7371833;19;20038;-71
2023/07/01 07:19:22;;;;;;;5.25;2.30;;;;;;;;;;7371078;19;20003;-70
2023/07/01 07:21:47;;;;;;;8.00;3.25;;;;;;;;;;7372329;19;19994;-71
2023/07/01 07:24:13;;;;;;;11.68;2.20;;;;;;;;;;7398308;19;19998;-72
2023/07/01 07:26:38;;;;;;;4.53;2.10;;;;;;;;;;7370784;19;20025;-68
2023/07/01 07:29:03;;;;;;;5.05;2.00;;;;;;;;;;7366358;19;20456;-68
2023/07/01 07:31:29;;;;;;;3.95;2.10;;;;;;;;;;7362899;19;20010;-68
2023/07/01 07:33:54;;;;;;;5.85;2.40;;;;;;;;;;7365372;19;19998;-68
2023/07/01 07:36:19;;;;;;;4.63;1.90;;;;;;;;;;7386533;19;20007;-69
2023/07/01 07:38:45;;;;;;;4.80;1.98;;;;;;;;;;7367370;19;20031;-68
2023/07/01 07:41:11;;;;;;;7.35;2.10;;;;;;;;;;7369242;19;20464;-68
2023/07/01 07:43:36;;;;;;;5.00;2.60;;;;;;;;;;7368346;19;20006;-68
2023/07/01 07:46:01;;;;;;;7.07;2.20;;;;;;;;;;7368144;19;20013;-68
2023/07/01 07:48:27;;;;;;;6.18;2.50;;;;;;;;;;7388925;19;20014;-68
2023/07/01 07:50:52;;;;;;;4.97;2.30;;;;;;;;;;7368119;19;20065;-68
2023/07/01 07:53:17;;;;;;;4.15;2.05;;;;;;;;;;7367461;19;20024;-69
2023/07/01 07:55:42;;;;;;;6.03;2.20;;;;;;;;;;7367002;19;20019;-68
2023/07/01 07:58:09;;;;;;;4.35;2.10;;;;;;;;;;7365539;19;20014;-68
2023/07/01 08:00:35;;;;;;;4.07;2.00;;;;;;;;;;7378770;19;20019;-69
2023/07/01 08:03:00;;;;;;;4.15;2.00;;;;;;;;;;7364201;19;20010;-69
2023/07/01 08:05:26;;;;;;;8.48;2.35;;;;;;;;;;7364763;19;20014;-69
2023/07/01 08:07:52;;;;;;;5.68;2.20;;;;;;;;;;7364532;19;20003;-68
2023/07/01 08:10:17;;;;;;;3.78;1.85;;;;;;;;;;7364377;19;20085;-68
2023/07/01 08:12:42;;;;;;;4.47;2.05;;;;;;;;;;7384496;19;20010;-68
2023/07/01 08:15:09;;;;;;;8.48;2.50;;;;;;;;;;7362882;19;20392;-68
2023/07/01 08:17:35;;;;;;;4.15;1.80;;;;;;;;;;7362233;19;20074;-68
2023/07/01 08:20:00;;;;;;;3.22;1.63;;;;;;;;;;7364750;19;20023;-67
2023/07/01 08:22:25;;;;;;;3.53;1.90;;;;;;;;;;7364846;19;20006;-66
2023/07/01 08:24:50;;;;;;;7.25;1.90;;;;;;;;;;7364571;19;20010;-66
2023/07/01 08:27:16;;;;;;;5.60;1.80;;;;;;;;;;7387219;19;20017;-68
2023/07/01 08:29:41;;;;;;;4.55;1.65;;;;;;;;;;7365331;19;20022;-65
2023/07/01 08:32:07;;;;;;;3.95;1.88;;;;;;;;;;7366609;19;20014;-65
2023/07/01 08:34:35;;;;;;;4.40;1.70;;;;;;;;;;7364773;19;20468;-66
2023/07/01 08:37:00;;;;;;;3.90;1.88;;;;;;;;;;7366571;19;20006;-68
2023/07/01 08:39:26;;;;;;;3.50;1.65;;;;;;;;;;7384558;19;20002;-68
2023/07/01 08:41:56;;;;;;;2.95;1.52;;;;;;;;;;7363130;19;20077;-69
2023/07/01 08:44:22;;;;;;;;;;;;;;;;;;7364309;19;20396;-67
2023/07/01 08:46:52;;;;;;;4.03;1.80;;;;;;;;;;7355625;19;20030;-68
2023/07/01 08:49:21;;;;;;;2.10;1.48;;;;;;;;;;7367553;19;20018;-69
2023/07/01 08:51:48;;;;;;;3.40;1.65;;;;;;;;;;7364865;19;20023;-70
2023/07/01 08:54:16;;;;;;;4.50;1.65;;;;;;;;;;7386701;19;19998;-67
2023/07/01 08:56:41;;;;;;;5.05;2.40;;;;;;;;;;7361063;19;20022;-68
2023/07/01 08:59:07;;;;;;;1.33;1.23;;;;;;;;;;7364721;19;20006;-68
2023/07/01 09:01:33;;;;;;;4.20;1.63;;;;;;;;;;7364651;19;20098;-69
2023/07/01 09:04:00;;;;;;;3.65;1.60;;;;;;;;;;7365655;19;20654;-68
2023/07/01 09:06:25;;;;;;;4.47;2.00;;;;;;;;;;7400474;19;20105;-69
2023/07/01 09:08:51;;;;;;;4.63;1.85;;;;;;;;;;7377821;19;20030;-68
2023/07/01 09:11:18;;;;;;;3.58;1.77;;;;;;;;;;7378784;19;20039;-68
2023/07/01 09:13:44;;;;;;;6.95;2.22;;;;;;;;;;7377711;19;20715;-69
2023/07/01 09:16:10;;;;;;;3.17;1.73;;;;;;;;;;7376795;19;20010;-69
2023/07/01 09:18:35;;;;;;;4.68;1.90;;;;;;;;;;7396660;19;20337;-69
2023/07/01 09:21:01;;;;;;;3.70;1.88;;;;;;;;;;7377464;19;20019;-69
2023/07/01 09:23:34;;;;;;;3.50;1.83;;;;;;;;;;7379039;19;20024;-69
2023/07/01 09:26:13;;;;;;;3.13;1.70;;;;;;;;;;7376848;19;20014;-68
2023/07/01 09:28:39;;;;;;;3.58;1.67;;;;;;;;;;7377404;19;20018;-68
2023/07/01 09:31:07;;;;;;;3.65;1.80;;;;;;;;;;7376381;19;20559;-69
2023/07/01 09:33:36;;;;;;;3.22;1.70;;;;;;;;;;7398358;19;20112;-67
2023/07/01 09:36:03;;;;;;;3.17;1.52;;;;;;;;;;7376212;19;20028;-68
2023/07/01 09:38:32;;;;;;;6.00;2.00;;;;;;;;;;7377523;19;20082;-67
2023/07/01 09:41:14;;;;;;;3.30;1.90;;;;;;;;;;7377899;19;20007;-67
2023/07/01 09:43:40;;;;;;;3.05;1.63;;;;;;;;;;7378240;19;20019;-68
2023/07/01 09:46:06;;;;;;;3.97;1.70;;;;;;;;;;7378502;19;20538;-68
2023/07/01 09:48:33;;;;;;;4.82;1.70;;;;;;;;;;7400601;19;20011;-68
2023/07/01 09:51:02;;;;;;;2.75;1.55;;;;;;;;;;7384790;19;20118;-68
2023/07/01 09:53:32;;;;;;;5.68;1.73;;;;;;;;;;7380521;19;20014;-68
2023/07/01 09:55:58;;;;;;;4.05;1.75;;;;;;;;;;7378635;19;20011;-68
2023/07/01 09:58:23;;;;;;;3.88;1.73;;;;;;;;;;7377103;19;20439;-67
2023/07/01 10:00:49;;;;;;;5.60;1.92;;;;;;;;;;7373558;19;20006;-68
2023/07/01 10:03:15;;;;;;;3.85;1.70;;;;;;;;;;7398510;19;20009;-68
2023/07/01 10:05:44;;;;;;;7.25;1.70;;;;;;;;;;7374852;19;20704;-68
2023/07/01 10:08:09;;;;;;;5.10;1.70;;;;;;;;;;7375493;19;20034;-68
2023/07/01 10:10:34;;;;;;;4.75;1.90;;;;;;;;;;7376729;19;20003;-66
2023/07/01 10:13:04;;;;;;;4.28;2.03;;;;;;;;;;7375627;19;20483;-67
2023/07/01 10:15:31;;;;;;;5.28;1.80;;;;;;;;;;7394983;19;20045;-67
2023/07/01 10:17:57;;;;;;;8.85;1.77;;;;;;;;;;7366626;19;20006;-67
2023/07/01 10:20:26;;;;;;;4.45;1.70;;;;;;;;;;7368752;19;20413;-67
2023/07/01 10:22:53;;;;;;;3.58;1.95;;;;;;;;;;7369180;19;20007;-66
2023/07/01 10:25:28;;;;;;;3.90;1.73;;;;;;;;;;7371660;19;20018;-67
2023/07/01 10:28:10;;;;;;;4.07;2.00;;;;;;;;;;7369804;19;20010;-67
2023/07/01 10:30:42;;;;;;;4.65;1.92;;;;;;;;;;7390092;19;20006;-67
2023/07/01 10:33:35;;;;;;;5.38;1.60;;;;;;;;;;7370760;19;20022;-67
2023/07/01 10:36:04;;;;;;;3.15;1.60;;;;;;;;;;7368249;19;20016;-67
2023/07/01 10:38:33;;;;;;;4.45;1.83;;;;;;;;;;7368946;19;20010;-67
2023/07/01 10:40:59;;;;;;;5.75;2.75;;;;;;;;;;7369294;19;20673;-66
2023/07/01 10:43:30;;;;;;;4.93;2.10;;;;;;;;;;7370025;19;20039;-67
2023/07/01 10:46:19;;;;;;;7.75;2.10;;;;;;;;;;7367057;19;20036;-68
2023/07/01 10:49:03;;;;;;;4.07;2.17;;;;;;;;;;7366278;19;20002;-68
2023/07/01 10:51:51;;;;;;;5.32;2.08;;;;;;;;;;7389858;19;20037;-67
2023/07/01 10:54:30;;;;;;;3.28;1.92;;;;;;;;;;7367801;19;20045;-69
2023/07/01 10:57:14;;;;;;;9.02;2.30;;;;;;;;;;7366997;19;20040;-67
2023/07/01 10:59:39;;;;;;;5.40;1.90;;;;;;;;;;7367112;19;20374;-67
2023/07/01 11:02:07;;;;;;;4.28;2.00;;;;;;;;;;7368142;19;20054;-67
2023/07/01 11:04:51;;;;;;;4.63;1.73;;;;;;;;;;7363731;19;20010;-67
2023/07/01 11:07:27;;;;;;;2.78;1.60;;;;;;;;;;7366587;19;20018;-68
2023/07/01 11:09:55;;;;;;;3.92;1.90;;;;;;;;;;7366041;19;20011;-66
2023/07/01 11:12:21;;;;;;;4.13;1.80;;;;;;;;;;7387163;19;20019;-67
2023/07/01 11:14:47;;;;;;;6.03;1.95;;;;;;;;;;7364388;19;20015;-67
2023/07/01 11:17:17;;;;;;;6.57;1.80;;;;;;;;;;7366008;19;20031;-67
2023/07/01 11:19:46;;;;;;;4.75;2.00;;;;;;;;;;7365277;19;20010;-67
2023/07/01 11:22:13;;;;;;;4.60;1.95;;;;;;;;;;7367189;19;20031;-67
2023/07/01 11:24:39;;;;;;;2.53;1.80;;;;;;;;;;7384530;19;20040;-67
2023/07/01 11:27:08;;;;;;;3.25;1.88;;;;;;;;;;7379596;19;20006;-67
2023/07/01 11:29:34;;;;;;;3.75;1.77;;;;;;;;;;7367691;19;20006;-67
2023/07/01 11:32:02;;;;;;;2.78;1.73;;;;;;;;;;7369876;19;20002;-67
2023/07/01 11:34:30;;;;;;;7.03;1.92;;;;;;;;;;7365313;19;20003;-66
2023/07/01 11:36:58;;;;;;;3.53;2.00;;;;;;;;;;7368958;19;20801;-67
2023/07/01 11:39:25;;;;;;;2.67;1.55;;;;;;;;;;7389662;19;20032;-67
2023/07/01 11:41:52;;;;;;;4.65;2.05;;;;;;;;;;7369132;19;20003;-67
2023/07/01 11:44:21;;;;;;;4.40;1.80;;;;;;;;;;7368945;19;20022;-67
2023/07/01 11:46:46;;;;;;;2.22;1.55;;;;;;;;;;7366943;19;20002;-67
2023/07/01 11:49:24;;;;;;;3.60;1.95;;;;;;;;;;7367100;19;20034;-67
2023/07/01 11:51:51;;;;;;;3.22;1.75;;;;;;;;;;7368785;19;20350;-67
2023/07/01 11:54:19;;;;;;;2.63;1.55;;;;;;;;;;7389387;19;20010;-67
2023/07/01 11:56:46;;;;;;;4.25;1.83;;;;;;;;;;7367779;19;20006;-67
2023/07/01 11:59:28;;;;;;;2.83;1.73;;;;;;;;;;7367339;19;20645;-67
2023/07/01 12:01:53;;;;;;;4.32;1.95;;;;;;;;;;7366481;19;20042;-67
2023/07/01 12:04:18;;;;;;;4.43;1.75;;;;;;;;;;7367392;19;20018;-67
2023/07/01 12:06:44;;;;;;;3.00;1.95;;;;;;;;;;7367439;19;20011;-67
2023/07/01 12:09:09;;;;;;;4.35;1.60;;;;;;;;;;7388515;19;20488;-67
2023/07/01 12:11:46;;;;;;;4.15;1.80;;;;;;;;;;7355374;19;20010;-67
2023/07/01 12:14:21;;;;;;;3.63;1.67;;;;;;;;;;7365979;19;20095;-68
2023/07/01 12:16:50;;;;;;;3.40;1.80;;;;;;;;;;7365003;19;20006;-68
2023/07/01 12:19:22;;;;;;;2.78;1.77;;;;;;;;;;7365939;19;20015;-68
2023/07/01 12:21:49;;;;;;;2.85;1.85;;;;;;;;;;7363150;19;20070;-68
2023/07/01 12:24:26;;;;;;;2.38;1.67;;;;;;;;;;7388928;19;20002;-68
2023/07/01 12:27:00;;;;;;;3.85;1.85;;;;;;;;;;7365195;19;20010;-68
2023/07/01 12:29:26;;;;;;;3.45;1.63;;;;;;;;;;7366339;19;20007;-67
2023/07/01 12:31:57;;;;;;;3.10;1.90;;;;;;;;;;7365554;19;20018;-67
2023/07/01 12:34:23;;;;;;;9.20;2.00;;;;;;;;;;7365255;19;20568;-67
2023/07/01 12:36:48;;;;;;;3.88;2.00;;;;;;;;;;7363439;19;20107;-67
2023/07/01 12:39:15;;;;;;;3.22;1.88;;;;;;;;;;7381121;19;20683;-67
2023/07/01 12:41:42;;;;;;;3.90;1.80;;;;;;;;;;7360271;19;20042;-67
2023/07/01 12:44:08;;;;;;;4.45;1.98;;;;;;;;;;7359358;19;20496;-68
2023/07/01 12:46:35;;;;;;;5.47;1.90;;;;;;;;;;7364813;19;20011;-68
2023/07/01 12:49:02;;;;;;;2.97;1.38;;;;;;;;;;7365450;19;20410;-68
2023/07/01 12:51:27;;;;;;;3.90;1.73;;;;;;;;;;7387382;19;20002;-68
2023/07/01 12:53:57;;;;;;;6.40;1.90;;;;;;;;;;7364847;19;20007;-68
2023/07/01 12:56:24;;;;;;;6.85;1.90;;;;;;;;;;7364867;19;20054;-69
2023/07/01 12:58:50;;;;;;;2.60;1.70;;;;;;;;;;7366288;19;20023;-67
2023/07/01 13:01:16;;;;;;;6.43;1.90;;;;;;;;;;7365538;19;20081;-67
2023/07/01 13:03:41;;;;;;;2.90;1.67;;;;;;;;;;7363955;19;19998;-67
2023/07/01 13:06:34;;;;;;;4.55;1.70;;;;;;;;;;7388694;19;20078;-67
2023/07/01 13:09:02;;;;;;;3.95;1.85;;;;;;;;;;7366661;19;20017;-67
2023/07/01 13:11:29;;;;;;;4.00;1.77;;;;;;;;;;7365301;19;20699;-66
2023/07/01 13:13:54;;;;;;;3.80;1.73;;;;;;;;;;7365085;19;20019;-66
2023/07/01 13:16:31;;;;;;;4.15;1.80;;;;;;;;;;7364407;19;20010;-68
2023/07/01 13:18:58;;;;;;;3.38;1.63;;;;;;;;;;7364859;19;20002;-66
2023/07/01 13:21:23;;;;;;;4.72;1.90;;;;;;;;;;7387208;19;20082;-66
2023/07/01 13:23:52;;;;;;;2.72;1.60;;;;;;;;;;7363449;19;20461;-66
2023/07/01 13:26:18;;;;;;;2.83;1.80;;;;;;;;;;7365341;19;20427;-67
2023/07/01 13:28:44;;;;;;;3.13;1.75;;;;;;;;;;7362674;19;20068;-66
2023/07/01 13:31:19;;;;;;;3.45;1.92;;;;;;;;;;7365479;19;20092;-66
2023/07/01 13:33:47;;;;;;;2.58;1.48;;;;;;;;;;7367665;19;20034;-68
2023/07/01 13:36:17;;;;;;;3.30;1.60;;;;;;;;;;7386645;19;20062;-66
2023/07/01 13:38:42;;;;;;;3.45;1.70;;;;;;;;;;7361288;19;20006;-66
2023/07/01 13:41:08;;;;;;;3.50;1.60;;;;;;;;;;7364385;19;20018;-66
2023/07/01 13:43:34;;;;;;;3.35;1.65;;;;;;;;;;7363666;19;20007;-67
2023/07/01 13:45:59;;;;;;;3.88;1.83;;;;;;;;;;7362810;19;19996;-67
2023/07/01 13:48:32;;;;;;;3.30;1.90;;;;;;;;;;7386541;19;20006;-67
2023/07/01 13:50:57;;;;;;;3.10;1.83;;;;;;;;;;7367047;19;20621;-67
2023/07/01 13:53:23;;;;;;;2.08;1.60;;;;;;;;;;7373656;19;20066;-68
2023/07/01 13:55:49;;;;;;;4.30;1.80;;;;;;;;;;7369729;19;20010;-67
2023/07/01 13:58:15;;;;;;;4.65;1.80;;;;;;;;;;7365993;19;20401;-67
2023/07/01 14:00:48;;;;;;;2.20;1.60;;;;;;;;;;7361811;19;20009;-66
2023/07/01 14:03:13;;;;;;;3.13;1.63;;;;;;;;;;7391680;19;20009;-67
2023/07/01 14:05:40;;;;;;;3.03;1.75;;;;;;;;;;7367470;19;20010;-66
2023/07/01 14:08:07;;;;;;;4.07;1.80;;;;;;;;;;7367542;19;20017;-66
2023/07/01 14:10:35;;;;;;;7.90;2.00;;;;;;;;;;7366230;19;20037;-68
2023/07/01 14:13:02;;;;;;;2.28;1.73;;;;;;;;;;7368088;19;20019;-68
2023/07/01 14:15:38;;;;;;;4.03;1.70;;;;;;;;;;7389334;19;20012;-66
2023/07/01 14:18:19;;;;;;;2.70;1.75;;;;;;;;;;7365911;19;20032;-67
2023/07/01 14:20:51;;;;;;;2.88;1.85;;;;;;;;;;7366283;19;20002;-67
2023/07/01 14:23:21;;;;;;;7.13;2.00;;;;;;;;;;7368241;19;20028;-67
2023/07/01 14:25:47;;;;;;;3.05;1.85;;;;;;;;;;7367130;19;20047;-68
2023/07/01 14:28:14;;;;;;;4.57;1.80;;;;;;;;;;7364045;19;20013;-67
2023/07/01 14:30:45;;;;;;;4.35;2.00;;;;;;;;;;7368408;19;20028;-66
2023/07/01 14:33:10;;;;;;;3.58;1.52;;;;;;;;;;7388815;19;20042;-66
2023/07/01 14:35:36;;;;;;;2.95;1.90;;;;;;;;;;7366340;19;20088;-67
2023/07/01 14:38:01;;;;;;;2.97;1.80;;;;;;;;;;7365337;19;20010;-66
2023/07/01 14:40:26;;;;;;;3.05;1.98;;;;;;;;;;7364135;19;20022;-66
2023/07/01 14:42:52;;;;;;;3.15;1.88;;;;;;;;;;7363205;19;22390;-66
2023/07/01 14:45:17;;;;;;;4.10;2.20;;;;;;;;;;7386729;19;20142;-66